Time;durP1;ratioP1;P1;durP2;ratioP2;P2;SDS_P1;SDS_P2;PMS_P1;PMS_P2;Temp;Humidity;BMP_temperature;BMP_pressure;BME280_temperature;BME280_humidity;BME280_pressure;Samples;Min_cycle;Max_cycle;Signal;HPM_P1;HPM_P2
2022/07/03 00:02:18;;;;;;;7.05;4.03;;;19.80;97.50;20.00;98821.00;;;;5055371;27;82917;-63
2022/07/03 00:04:44;;;;;;;7.18;3.80;;;;;20.00;98810.00;;;;5056079;27;82570;-60
2022/07/03 00:07:11;;;;;;;7.78;3.38;;;19.70;98.80;20.00;98811.00;;;;5066652;27;83844;-60
2022/07/03 00:09:37;;;;;;;7.22;3.55;;;19.60;98.40;19.90;98796.00;;;;5080283;27;82269;-59
2022/07/03 00:12:05;;;;;;;8.60;3.97;;;19.50;99.90;19.80;98793.00;;;;5076076;27;81900;-60
2022/07/03 00:14:32;;;;;;;7.88;4.05;;;;;19.60;98791.00;;;;5080379;27;82232;-60
2022/07/03 00:16:58;;;;;;;6.95;3.60;;;19.30;99.90;19.50;98796.00;;;;5084455;27;82516;-59
2022/07/03 00:19:25;;;;;;;6.60;3.95;;;19.10;99.90;19.40;98781.00;;;;5076789;27;82354;-60
2022/07/03 00:21:58;;;;;;;7.72;3.78;;;19.00;99.90;19.30;98774.00;;;;5078941;27;82320;-63
2022/07/03 00:24:41;;;;;;;14.32;4.32;;;18.90;99.90;19.20;98770.00;;;;5063066;27;83455;-60
2022/07/03 00:27:09;;;;;;;8.25;3.83;;;18.90;99.90;19.10;98766.00;;;;5054137;27;85294;-60
2022/07/03 00:29:44;;;;;;;7.35;4.05;;;18.80;99.90;19.00;98759.00;;;;5081808;27;84479;-62
2022/07/03 00:32:13;;;;;;;14.55;4.10;;;18.80;99.90;19.00;98767.00;;;;5076731;27;81808;-63
2022/07/03 00:34:40;;;;;;;8.85;4.45;;;18.80;99.90;19.00;98756.00;;;;5075045;27;82210;-59
2022/07/03 00:37:09;;;;;;;13.70;4.70;;;18.80;99.90;19.00;98752.00;;;;5047657;27;82518;-58
2022/07/03 00:39:41;;;;;;;9.65;3.95;;;18.80;99.90;19.00;98761.00;;;;5072256;27;82010;-63
2022/07/03 00:42:10;;;;;;;8.55;4.18;;;18.80;99.90;19.00;98762.00;;;;5072515;27;82429;-64
2022/07/03 00:44:49;;;;;;;7.00;4.15;;;18.90;99.90;19.00;98748.00;;;;5074387;27;82318;-63
2022/07/03 00:47:18;;;;;;;9.77;4.25;;;18.80;99.90;19.00;98762.00;;;;5075087;27;82875;-64
2022/07/03 00:49:47;;;;;;;15.95;3.97;;;18.70;99.90;18.90;98759.00;;;;5076655;27;82296;-63
2022/07/03 00:52:16;;;;;;;11.55;4.25;;;18.70;99.90;18.90;98769.00;;;;5074480;27;83014;-64
2022/07/03 00:54:57;;;;;;;10.40;3.63;;;18.70;99.90;18.80;98755.00;;;;5071497;27;83410;-64
2022/07/03 00:57:27;;;;;;;7.75;4.13;;;18.70;99.90;18.90;98754.00;;;;5072766;27;82601;-63
2022/07/03 00:59:54;;;;;;;10.32;3.85;;;;;18.80;98750.00;;;;5075304;27;82402;-64
2022/07/03 01:02:44;;;;;;;12.02;4.22;;;18.60;99.90;18.80;98758.00;;;;5070783;27;82286;-64
2022/07/03 01:05:29;;;;;;;9.27;3.97;;;18.60;99.90;18.80;98756.00;;;;5073436;27;83488;-63
2022/07/03 01:08:36;;;;;;;7.95;3.85;;;18.60;99.90;18.80;98758.00;;;;5068096;27;82606;-64
2022/07/03 01:11:42;;;;;;;9.25;3.88;;;18.60;99.90;18.80;98750.00;;;;5076613;27;82099;-63
2022/07/03 01:14:53;;;;;;;7.63;3.97;;;18.60;99.90;18.80;98759.00;;;;5072491;27;81972;-64
2022/07/03 01:17:37;;;;;;;7.78;4.00;;;18.70;99.90;18.90;98750.00;;;;5045567;27;83333;-63
2022/07/03 01:20:07;;;;;;;6.50;3.97;;;18.60;99.90;18.90;98755.00;;;;5076900;27;82857;-64
2022/07/03 01:22:42;;;;;;;5.30;3.33;;;18.70;99.90;18.80;98759.00;;;;5078282;27;83404;-64
2022/07/03 01:25:25;;;;;;;10.13;4.07;;;18.70;99.90;18.90;98761.00;;;;5078124;27;82299;-64
2022/07/03 01:28:00;;;;;;;8.88;4.07;;;18.60;99.90;18.90;98748.00;;;;5077766;27;82726;-64
2022/07/03 01:30:38;;;;;;;9.38;3.53;;;18.60;99.90;18.80;98751.00;;;;5077423;27;82614;-63
2022/07/03 01:33:16;;;;;;;6.63;4.40;;;18.60;99.90;18.80;98756.00;;;;5079055;27;82321;-64
2022/07/03 01:36:00;;;;;;;6.57;4.10;;;18.60;99.90;18.80;98764.00;;;;5078867;27;82282;-63
2022/07/03 01:38:29;;;;;;;7.45;3.83;;;18.60;99.90;18.80;98750.00;;;;5078967;27;83867;-63
2022/07/03 01:40:56;;;;;;;8.20;4.20;;;;;18.80;98749.00;;;;5082105;27;82773;-63
2022/07/03 01:43:34;;;;;;;8.27;4.28;;;18.60;99.90;18.80;98756.00;;;;5058146;27;82442;-63
2022/07/03 01:46:02;;;;;;;4.72;3.40;;;18.60;99.90;18.90;98749.00;;;;5075425;27;82841;-63
2022/07/03 01:48:31;;;;;;;7.20;3.72;;;18.60;99.90;18.90;98766.00;;;;5078187;27;82318;-63
2022/07/03 01:50:58;;;;;;;11.02;3.67;;;;;18.90;98752.00;;;;5081929;27;82722;-64
2022/07/03 01:53:28;;;;;;;11.98;4.10;;;18.60;99.90;18.90;98763.00;;;;5077814;27;82764;-64
2022/07/03 01:56:02;;;;;;;6.72;4.20;;;18.70;99.90;18.90;98761.00;;;;5071913;27;81911;-64
2022/07/03 01:58:28;;;;;;;5.93;3.97;;;18.80;99.90;19.10;98750.00;;;;5073484;27;82286;-64
2022/07/03 02:01:19;;;;;;;7.53;4.53;;;19.10;99.90;19.50;98764.00;;;;5037947;27;82808;-63
2022/07/03 02:04:07;;;;;;;9.87;4.23;;;19.60;99.90;19.90;98757.00;;;;5074506;27;82421;-64
2022/07/03 02:06:51;;;;;;;6.25;3.63;;;19.80;99.90;20.30;98749.00;;;;5050354;27;81920;-63
2022/07/03 02:09:24;;;;;;;7.25;3.85;;;20.00;99.90;20.30;98760.00;;;;5072241;27;82381;-63
2022/07/03 02:11:52;;;;;;;7.38;3.85;;;20.30;99.90;20.60;98751.00;;;;5060942;27;83689;-63
2022/07/03 02:14:40;;;;;;;6.10;3.75;;;20.40;99.90;20.60;98757.00;;;;5058753;27;83357;-64
2022/07/03 02:17:21;;;;;;;9.65;3.67;;;20.70;99.90;21.10;98743.00;;;;5047201;27;81894;-64
2022/07/03 02:20:03;;;;;;;8.05;3.85;;;21.00;99.90;21.50;98740.00;;;;5056965;27;82806;-63
2022/07/03 02:22:59;;;;;;;5.85;3.35;;;21.10;99.90;21.50;98745.00;;;;5048043;27;83077;-64
2022/07/03 02:25:41;;;;;;;5.53;3.83;;;21.20;99.90;21.80;98747.00;;;;5055111;27;82661;-64
2022/07/03 02:28:27;;;;;;;5.55;3.58;;;21.50;99.90;21.90;98748.00;;;;5048466;27;82100;-64
2022/07/03 02:30:59;;;;;;;8.32;3.75;;;21.50;99.90;21.90;98746.00;;;;5047590;27;82993;-64
2022/07/03 02:33:29;;;;;;;5.35;3.47;;;21.60;99.90;22.00;98743.00;;;;5055271;27;82249;-64
2022/07/03 02:35:57;;;;;;;6.32;3.50;;;21.80;99.90;22.30;98738.00;;;;5055816;27;82038;-64
2022/07/03 02:38:26;;;;;;;7.57;3.30;;;21.90;99.90;22.50;98741.00;;;;5046661;27;83251;-64
2022/07/03 02:41:08;;;;;;;4.40;3.20;;;22.00;99.90;22.30;98741.00;;;;5053265;27;82525;-63
2022/07/03 02:44:17;;;;;;;11.40;4.30;;;22.00;99.90;22.50;98745.00;;;;5065259;27;82612;-63
2022/07/03 02:47:00;;;;;;;7.25;3.60;;;22.40;99.90;23.00;98737.00;;;;5057650;27;82561;-64
2022/07/03 02:49:53;;;;;;;5.00;3.55;;;22.70;99.90;23.30;98736.00;;;;5059654;27;81906;-64
2022/07/03 02:52:32;;;;;;;6.25;3.65;;;22.70;99.90;23.00;98739.00;;;;5056595;27;82528;-63
2022/07/03 02:55:45;;;;;;;7.32;3.72;;;22.40;99.90;22.80;98734.00;;;;5055708;27;82776;-64
2022/07/03 02:58:53;;;;;;;6.60;3.53;;;22.50;99.90;22.80;98746.00;;;;5056190;27;83374;-63
2022/07/03 03:01:43;;;;;;;6.65;3.85;;;22.40;99.90;22.90;98738.00;;;;5056315;27;82197;-63
2022/07/03 03:04:22;;;;;;;8.95;3.88;;;22.40;99.90;22.70;98731.00;;;;5055657;27;83792;-64
2022/07/03 03:06:55;;;;;;;8.93;4.22;;;22.30;99.90;22.70;98737.00;;;;5064190;27;84576;-64
2022/07/03 03:09:31;;;;;;;5.20;3.38;;;22.30;99.90;22.80;98739.00;;;;5034501;28;84276;-64
2022/07/03 03:12:01;;;;;;;5.35;3.92;;;22.40;99.90;22.80;98740.00;;;;5065755;27;81931;-63
2022/07/03 03:14:40;;;;;;;5.93;3.77;;;21.80;99.90;22.80;98735.00;;;;5061858;27;82481;-63
2022/07/03 03:17:09;;;;;;;5.88;3.72;;;22.50;99.90;22.90;98740.00;;;;5066398;27;82468;-64
2022/07/03 03:19:41;;;;;;;8.35;4.10;;;22.10;99.90;22.60;98734.00;;;;5056664;27;82485;-63
2022/07/03 03:22:34;;;;;;;6.05;3.88;;;22.10;99.90;22.40;98737.00;;;;5055799;27;82515;-64
2022/07/03 03:25:02;;;;;;;5.50;3.95;;;22.10;99.90;22.50;98732.00;;;;5053886;27;82189;-64
2022/07/03 03:27:30;;;;;;;7.38;4.00;;;;;22.50;98731.00;;;;5050682;27;82446;-63
2022/07/03 03:29:56;;;;;;;5.97;3.90;;;22.10;99.90;22.60;98737.00;;;;5052013;27;82282;-64
2022/07/03 03:32:24;;;;;;;7.32;4.13;;;22.10;99.90;22.60;98737.00;;;;5052573;27;83004;-64
2022/07/03 03:34:51;;;;;;;6.38;3.78;;;21.90;99.90;22.20;98735.00;;;;5053604;27;83379;-64
2022/07/03 03:37:17;;;;;;;7.38;3.58;;;22.00;99.90;22.50;98730.00;;;;5047465;27;83798;-64
2022/07/03 03:39:43;;;;;;;11.68;4.70;;;22.20;99.90;22.70;98728.00;;;;5050120;27;82735;-64
2022/07/03 03:42:09;;;;;;;9.25;4.10;;;22.30;99.90;22.50;98730.00;;;;5057055;27;82761;-64
2022/07/03 03:44:36;;;;;;;5.07;3.70;;;22.20;99.90;22.50;98728.00;;;;5057649;27;82857;-64
2022/07/03 03:47:03;;;;;;;6.30;3.83;;;22.00;99.90;22.50;98720.00;;;;5050937;27;82698;-64
2022/07/03 03:49:30;;;;;;;7.18;4.35;;;22.20;99.90;22.50;98720.00;;;;5056738;27;82500;-64
2022/07/03 03:51:57;;;;;;;6.65;4.28;;;22.30;99.90;22.60;98715.00;;;;5059064;27;82361;-64
2022/07/03 03:54:23;;;;;;;9.65;4.68;;;22.20;99.90;22.50;98723.00;;;;5057653;27;83361;-64
2022/07/03 03:56:49;;;;;;;6.85;4.10;;;22.40;99.90;22.90;98710.00;;;;5055397;27;83316;-64
2022/07/03 03:59:15;;;;;;;8.73;4.57;;;23.20;99.90;23.70;98704.00;;;;5063312;27;83288;-64
2022/07/03 04:01:42;;;;;;;8.13;4.32;;;23.00;99.90;23.50;98696.00;;;;5064053;27;82965;-63
2022/07/03 04:04:08;;;;;;;9.98;4.53;;;22.90;99.90;23.30;98706.00;;;;5049023;27;83446;-63
2022/07/03 04:06:34;;;;;;;7.55;4.25;;;22.80;99.90;23.10;98710.00;;;;5054957;27;82538;-63
2022/07/03 04:09:00;;;;;;;6.88;4.20;;;23.20;99.90;23.70;98706.00;;;;5054070;27;82395;-64
2022/07/03 04:11:26;;;;;;;6.75;4.30;;;23.50;99.90;24.20;98703.00;;;;5050873;27;81990;-63
2022/07/03 04:13:52;;;;;;;9.68;4.03;;;23.50;99.90;24.10;98716.00;;;;5061852;27;83244;-63
2022/07/03 04:16:18;;;;;;;5.00;4.00;;;23.40;99.90;23.90;98710.00;;;;5064323;27;82735;-63
2022/07/03 04:18:45;;;;;;;7.53;4.70;;;;;23.90;98707.00;;;;5063402;27;81942;-64
2022/07/03 04:21:11;;;;;;;6.07;4.57;;;23.50;99.90;23.90;98705.00;;;;5052502;27;82806;-63
2022/07/03 04:23:38;;;;;;;6.43;4.05;;;;;24.40;98704.00;;;;5063523;27;82208;-64
2022/07/03 04:26:05;;;;;;;7.53;4.40;;;22.60;99.90;24.70;98715.00;;;;5051485;27;82583;-63
2022/07/03 04:28:32;;;;;;;8.77;4.47;;;;;24.70;98713.00;;;;5055658;27;82780;-64
2022/07/03 04:30:59;;;;;;;9.23;5.25;;;24.10;99.90;24.50;98704.00;;;;5045070;28;81880;-64
2022/07/03 04:33:26;;;;;;;8.77;4.50;;;;;23.90;98711.00;;;;5054128;27;83274;-64
2022/07/03 04:35:52;;;;;;;7.95;5.05;;;;;23.80;98722.00;;;;5054672;27;82617;-64
2022/07/03 04:38:19;;;;;;;7.78;5.28;;;23.90;99.90;24.40;98716.00;;;;5045105;28;82214;-64
2022/07/03 04:40:46;;;;;;;7.63;5.20;;;;;24.50;98714.00;;;;5053478;27;81963;-64
2022/07/03 04:43:12;;;;;;;6.90;4.45;;;;;24.30;98716.00;;;;5052380;27;82292;-63
2022/07/03 04:45:39;;;;;;;7.43;4.75;;;;;24.80;98723.00;;;;5055146;27;84715;-64
2022/07/03 04:48:05;;;;;;;8.27;4.60;;;24.70;99.90;25.30;98726.00;;;;5052814;27;84043;-63
2022/07/03 04:50:31;;;;;;;9.55;4.78;;;24.80;99.60;25.50;98720.00;;;;5054276;27;82084;-64
2022/07/03 04:52:58;;;;;;;9.95;4.80;;;;;26.10;98730.00;;;;5058874;27;82261;-64
2022/07/03 04:55:24;;;;;;;10.02;5.20;;;25.20;99.60;25.80;98711.00;;;;5056940;27;82805;-64
2022/07/03 04:57:51;;;;;;;7.82;4.57;;;;;25.20;98720.00;;;;5056777;27;82373;-64
2022/07/03 05:00:17;;;;;;;7.35;4.57;;;;;25.30;98712.00;;;;5058797;27;81857;-64
2022/07/03 05:02:44;;;;;;;9.40;5.20;;;;;24.70;98720.00;;;;5056865;27;82501;-64
2022/07/03 05:05:10;;;;;;;6.93;4.80;;;;;24.60;98720.00;;;;5051766;27;83526;-63
2022/07/03 05:07:36;;;;;;;8.93;4.72;;;24.60;99.90;25.20;98716.00;;;;5062261;27;83740;-63
2022/07/03 05:10:03;;;;;;;7.80;4.90;;;25.40;99.10;26.20;98714.00;;;;5056927;27;82913;-63
2022/07/03 05:12:29;;;;;;;10.73;5.70;;;;;26.20;98714.00;;;;5054947;27;82491;-63
2022/07/03 05:14:56;;;;;;;11.88;5.20;;;;;25.90;98717.00;;;;5061123;27;83462;-63
2022/07/03 05:17:22;;;;;;;8.88;4.82;;;;;26.00;98718.00;;;;5063580;27;83401;-62
2022/07/03 05:20:23;;;;;;;11.95;5.30;;;;;27.30;98714.00;;;;5057467;27;82673;-63
2022/07/03 05:22:35;;;;;;;7.85;4.63;;;;;27.80;98705.00;;;;5047247;27;83589;-63
2022/07/03 05:25:02;;;;;;;8.02;4.97;;;;;27.60;98706.00;;;;5052912;27;82570;-63
2022/07/03 05:27:29;;;;;;;9.60;5.15;;;;;28.00;98711.00;;;;5016154;27;82257;-63
2022/07/03 05:29:56;;;;;;;6.70;5.35;;;;;27.40;98713.00;;;;5063091;27;82670;-63
2022/07/03 05:32:22;;;;;;;7.53;4.70;;;;;28.00;98713.00;;;;5058160;27;82645;-63
2022/07/03 05:34:49;;;;;;;8.35;4.97;;;;;28.30;98725.00;;;;5068579;27;84713;-63
2022/07/03 05:37:15;;;;;;;8.35;5.13;;;;;28.30;98707.00;;;;5072905;27;83037;-64
2022/07/03 05:39:42;;;;;;;10.15;5.40;;;;;27.80;98715.00;;;;5077849;27;81903;-64
2022/07/03 05:42:08;;;;;;;8.13;4.97;;;;;28.00;98718.00;;;;5069096;27;82416;-64
2022/07/03 05:44:35;;;;;;;10.18;5.25;;;;;27.70;98722.00;;;;5074901;27;83794;-65
2022/07/03 05:47:01;;;;;;;7.00;5.18;;;;;27.50;98725.00;;;;5057483;27;82391;-64
2022/07/03 05:49:28;;;;;;;10.52;5.05;;;;;27.40;98717.00;;;;5066232;27;82033;-64
2022/07/03 05:51:54;;;;;;;7.40;5.22;;;;;28.10;98721.00;;;;5078082;27;83524;-63
2022/07/03 05:54:21;;;;;;;6.78;4.32;;;;;28.60;98715.00;;;;5076934;27;82612;-63
2022/07/03 05:56:47;;;;;;;9.07;5.40;;;28.20;97.00;29.10;98718.00;;;;5075569;27;81826;-63
2022/07/03 05:59:13;;;;;;;7.22;4.90;;;;;29.50;98717.00;;;;5062013;27;83413;-63
2022/07/03 06:01:39;;;;;;;8.93;5.15;;;28.30;91.90;29.30;98708.00;;;;5074718;27;82584;-63
2022/07/03 06:04:05;;;;;;;9.82;5.22;;;28.20;91.60;28.80;98703.00;;;;5077901;27;82632;-63
2022/07/03 06:06:32;;;;;;;11.63;5.35;;;28.00;93.60;28.80;98704.00;;;;5066800;27;82598;-63
2022/07/03 06:08:58;;;;;;;8.75;5.28;;;;;28.90;98706.00;;;;5066375;27;81893;-63
2022/07/03 06:11:25;;;;;;;7.20;5.32;;;;;29.50;98717.00;;;;5081042;27;82100;-62
2022/07/03 06:13:51;;;;;;;9.18;5.97;;;;;29.40;98713.00;;;;5060761;27;82546;-63
2022/07/03 06:16:18;;;;;;;8.45;5.28;;;;;28.10;98729.00;;;;5067812;27;82090;-63
2022/07/03 06:18:44;;;;;;;9.52;5.22;;;27.30;94.70;28.10;98718.00;;;;5066179;27;82199;-64
2022/07/03 06:21:11;;;;;;;10.52;5.85;;;;;27.90;98717.00;;;;5053516;27;82437;-63
2022/07/03 06:23:38;;;;;;;7.50;5.53;;;;;27.30;98709.00;;;;5066487;27;83784;-64
2022/07/03 06:26:04;;;;;;;8.65;5.22;;;26.90;94.40;27.60;98717.00;;;;5074715;27;83293;-67
2022/07/03 06:28:30;;;;;;;10.60;5.30;;;;;27.60;98716.00;;;;5059558;27;82332;-64
2022/07/03 06:30:57;;;;;;;10.95;5.82;;;;;27.50;98712.00;;;;5065689;27;83516;-64
2022/07/03 06:33:23;;;;;;;13.10;5.05;;;;;27.20;98715.00;;;;5058676;27;83608;-64
2022/07/03 06:35:50;;;;;;;11.15;5.32;;;;;26.60;98709.00;;;;5058578;27;82836;-64
2022/07/03 06:38:17;;;;;;;10.73;5.63;;;;;25.80;98722.00;;;;5075262;27;82433;-64
2022/07/03 06:40:43;;;;;;;8.98;4.60;;;25.80;96.30;26.10;98711.00;;;;5071347;27;81582;-64
2022/07/03 06:43:09;;;;;;;9.75;5.40;;;25.70;99.90;26.00;98711.00;;;;5038480;27;82884;-63
2022/07/03 06:45:36;;;;;;;12.20;5.65;;;;;25.80;98710.00;;;;5074656;27;82012;-59
2022/07/03 06:48:03;;;;;;;10.30;5.35;;;25.70;97.90;25.90;98711.00;;;;5074279;27;82745;-59
2022/07/03 06:50:29;;;;;;;6.32;5.32;;;;;26.00;98710.00;;;;5075824;27;82384;-59
2022/07/03 06:52:56;;;;;;;11.30;4.82;;;;;25.80;98714.00;;;;5069111;27;82632;-59
2022/07/03 06:55:22;;;;;;;7.65;5.03;;;;;25.80;98722.00;;;;5072661;27;82148;-59
2022/07/03 06:57:48;;;;;;;8.07;5.40;;;25.40;98.70;25.60;98720.00;;;;5072411;27;82302;-60
2022/07/03 07:00:15;;;;;;;7.72;5.03;;;25.70;98.00;25.90;98724.00;;;;5070724;27;83483;-59
2022/07/03 07:02:41;;;;;;;9.15;4.78;;;;;26.00;98724.00;;;;5076970;27;82922;-59
2022/07/03 07:05:08;;;;;;;14.07;5.63;;;25.70;97.60;26.00;98726.00;;;;5080892;27;82762;-59
2022/07/03 07:07:35;;;;;;;7.82;5.70;;;;;26.00;98725.00;;;;5086823;27;81795;-58
2022/07/03 07:10:02;;;;;;;7.68;5.43;;;;;26.10;98722.00;;;;5072185;27;83008;-58
2022/07/03 07:12:29;;;;;;;10.57;5.07;;;;;26.20;98726.00;;;;5075381;27;82835;-59
2022/07/03 07:14:56;;;;;;;10.75;5.43;;;;;26.10;98728.00;;;;5066182;27;83400;-59
2022/07/03 07:17:22;;;;;;;10.63;5.57;;;;;26.10;98729.00;;;;5066246;27;82157;-58
2022/07/03 07:19:48;;;;;;;12.00;5.47;;;26.00;98.50;26.20;98731.00;;;;5058431;27;82672;-59
2022/07/03 07:22:15;;;;;;;9.48;5.43;;;;;26.10;98720.00;;;;5057562;27;82519;-59
2022/07/03 07:24:41;;;;;;;10.00;5.35;;;;;26.10;98723.00;;;;5063832;27;81940;-59
2022/07/03 07:27:08;;;;;;;12.93;5.50;;;;;26.20;98716.00;;;;5053121;27;82002;-59
2022/07/03 07:29:34;;;;;;;9.02;5.40;;;;;26.40;98719.00;;;;5055852;27;84271;-58
2022/07/03 07:32:01;;;;;;;6.18;4.97;;;;;26.50;98711.00;;;;5062685;27;82570;-59
2022/07/03 07:34:27;;;;;;;9.93;5.18;;;;;26.60;98728.00;;;;5056351;27;82498;-59
2022/07/03 07:36:54;;;;;;;10.85;5.32;;;;;26.50;98731.00;;;;5057441;27;83116;-58
2022/07/03 07:39:20;;;;;;;10.40;5.68;;;26.20;97.20;26.40;98717.00;;;;5060408;27;82285;-63
2022/07/03 07:41:47;;;;;;;11.07;5.93;;;;;26.60;98720.00;;;;5060236;27;82769;-64
2022/07/03 07:44:14;;;;;;;12.32;5.80;;;;;26.70;98725.00;;;;5053920;27;82913;-63
2022/07/03 07:46:40;;;;;;;14.10;5.55;;;;;26.40;98715.00;;;;5054915;27;82554;-63
2022/07/03 07:49:06;;;;;;;14.82;6.38;;;;;26.50;98708.00;;;;5053118;27;82340;-63
2022/07/03 07:51:33;;;;;;;10.50;5.57;;;;;26.40;98716.00;;;;5059734;27;82669;-63
2022/07/03 07:53:59;;;;;;;7.75;4.63;;;;;26.70;98710.00;;;;5051034;27;82250;-63
2022/07/03 07:56:26;;;;;;;8.50;5.35;;;26.50;94.50;26.70;98725.00;;;;5049163;27;82019;-63
2022/07/03 07:58:53;;;;;;;10.23;5.90;;;;;26.60;98723.00;;;;5050114;27;82249;-64
2022/07/03 08:06:50;;;;;;;6.97;5.18;;;;;26.60;98703.00;;;;5063061;27;81953;-58
2022/07/03 08:09:16;;;;;;;6.65;5.95;;;;;26.80;98714.00;;;;5056611;27;82466;-58
2022/07/03 08:11:43;;;;;;;7.32;5.40;;;26.80;94.20;27.00;98709.00;;;;5058495;27;82729;-58
2022/07/03 08:14:10;;;;;;;13.32;5.35;;;;;27.20;98706.00;;;;5053663;27;82322;-58
2022/07/03 08:16:38;;;;;;;9.40;5.45;;;;;27.20;98714.00;;;;5065088;27;81815;-59
2022/07/03 08:19:05;;;;;;;9.48;5.72;;;;;27.10;98722.00;;;;5058001;27;83254;-58
2022/07/03 08:21:32;;;;;;;8.80;6.13;;;;;27.20;98715.00;;;;5055212;27;82603;-58
2022/07/03 08:23:58;;;;;;;9.23;5.53;;;27.00;93.60;27.20;98729.00;;;;5047093;27;82263;-59
2022/07/03 08:26:24;;;;;;;10.02;6.30;;;26.70;93.60;27.00;98730.00;;;;5054288;27;82737;-58
2022/07/03 08:28:51;;;;;;;8.38;5.82;;;;;27.10;98708.00;;;;5057796;27;82772;-58
2022/07/03 08:31:17;;;;;;;10.50;5.53;;;;;27.40;98718.00;;;;5064693;27;82807;-59
2022/07/03 08:33:43;;;;;;;7.78;5.55;;;27.20;95.20;27.60;98718.00;;;;5057411;27;82522;-58
2022/07/03 08:36:10;;;;;;;11.98;5.70;;;;;27.60;98733.00;;;;5054682;27;82135;-59
2022/07/03 08:38:37;;;;;;;9.38;5.50;;;;;28.00;98721.00;;;;5044692;28;82421;-58
2022/07/03 08:41:04;;;;;;;12.60;6.15;;;27.80;93.60;28.20;98717.00;;;;5052666;27;83100;-59
2022/07/03 08:43:31;;;;;;;8.93;5.22;;;27.80;92.70;28.20;98720.00;;;;5055114;27;83320;-58
2022/07/03 08:46:00;;;;;;;8.93;6.03;;;27.20;92.90;27.50;98732.00;;;;5050075;27;82349;-59
2022/07/03 08:48:29;;;;;;;6.38;4.55;;;27.20;87.00;27.60;98730.00;;;;5057052;27;82925;-58
2022/07/03 08:50:58;;;;;;;6.22;4.60;;;27.40;89.20;27.80;98711.00;;;;5050538;27;85610;-58
2022/07/03 08:53:24;;;;;;;7.05;4.47;;;27.60;92.40;27.90;98722.00;;;;5052751;27;84933;-58
2022/07/03 08:55:52;;;;;;;10.80;4.90;;;27.50;91.90;27.80;98720.00;;;;5045401;27;82136;-59
2022/07/03 08:58:22;;;;;;;6.25;4.45;;;27.60;84.90;28.00;98714.00;;;;5057756;27;82366;-59
2022/07/03 09:00:48;;;;;;;6.63;4.88;;;27.90;84.10;28.20;98718.00;;;;5052091;27;82713;-59
2022/07/03 09:03:15;;;;;;;9.32;5.25;;;28.00;92.60;28.40;98710.00;;;;5052982;27;82259;-59
2022/07/03 09:05:41;;;;;;;9.35;5.25;;;27.80;89.60;28.30;98716.00;;;;5054085;27;82046;-59
2022/07/03 09:08:09;;;;;;;10.63;5.85;;;28.00;93.80;28.40;98721.00;;;;5062039;27;83631;-59
2022/07/03 09:10:35;;;;;;;11.70;5.68;;;28.00;89.00;28.50;98710.00;;;;5051972;27;82442;-59
2022/07/03 09:13:02;;;;;;;10.85;5.40;;;;;28.70;98717.00;;;;5057805;27;82492;-59
2022/07/03 09:15:29;;;;;;;10.00;5.88;;;27.90;93.40;28.20;98733.00;;;;5058474;27;82978;-59
2022/07/03 09:18:06;;;;;;;9.10;6.07;;;27.80;93.30;28.30;98705.00;;;;5064506;27;83406;-59
2022/07/03 09:20:34;;;;;;;9.00;5.15;;;;;28.40;98712.00;;;;5049015;27;83660;-59
2022/07/03 09:23:18;;;;;;;12.48;6.38;;;27.70;93.60;28.10;98721.00;;;;5060840;27;83209;-58
2022/07/03 09:26:02;;;;;;;8.57;5.90;;;27.40;93.20;27.80;98719.00;;;;5053254;27;81825;-58
2022/07/03 09:28:52;;;;;;;7.78;5.22;;;27.60;89.10;28.10;98726.00;;;;5053894;27;83339;-57
2022/07/03 09:57:52;;;;;;;8.95;5.07;;;;;28.50;98701.00;;;;5042663;27;1585596;-58
2022/07/03 10:00:21;;;;;;;11.55;6.10;;;28.20;82.20;28.80;98694.00;;;;5102595;27;82725;-58
2022/07/03 10:03:02;;;;;;;9.38;5.45;;;28.00;82.50;28.40;98709.00;;;;5102294;27;81659;-59
2022/07/03 10:05:33;;;;;;;;;;;26.80;84.30;28.40;98709.00;;;;5126895;27;81679;-59
2022/07/03 10:08:11;;;;;;;;;;;28.10;84.00;28.50;98708.00;;;;5114154;27;82811;-58
2022/07/03 10:10:41;;;;;;;5.63;5.00;;;28.10;86.30;28.60;98705.00;;;;5133330;27;82103;-58
2022/07/03 10:13:08;;;;;;;6.63;5.30;;;;;28.40;98704.00;;;;5122244;27;82698;-58
2022/07/03 10:15:39;;;;;;;8.52;5.40;;;27.80;83.40;28.10;98715.00;;;;5133116;27;82731;-59
2022/07/03 10:18:10;;;;;;;;;;;27.80;86.20;28.10;98713.00;;;;5133145;27;82115;-58
2022/07/03 10:20:50;;;;;;;6.25;5.25;;;27.50;86.60;28.00;98714.00;;;;5133707;27;82219;-58
2022/07/03 10:23:20;;;;;;;7.57;5.53;;;27.50;84.10;28.00;98724.00;;;;5129725;27;82223;-58
2022/07/03 10:25:48;;;;;;;8.73;5.65;;;27.70;85.40;28.10;98704.00;;;;5129854;27;81870;-58
2022/07/03 10:28:17;;;;;;;9.90;5.50;;;27.70;89.50;28.10;98714.00;;;;5130209;27;83442;-63
2022/07/03 10:30:47;;;;;;;9.60;5.78;;;27.50;91.30;27.90;98711.00;;;;5132437;27;83396;-62
2022/07/03 10:33:13;;;;;;;7.53;5.30;;;27.60;86.40;27.90;98703.00;;;;5116339;27;83739;-63
2022/07/03 10:35:48;;;;;;;10.45;5.63;;;27.80;86.00;28.20;98703.00;;;;5137030;27;81563;-62
2022/07/03 10:38:22;;;;;;;8.25;5.45;;;;;28.30;98700.00;;;;5133717;27;82253;-62
2022/07/03 10:47:39;;;;;;;7.72;5.00;;;28.00;84.40;28.40;98696.00;;;;5115280;27;82034;-63
2022/07/03 10:50:21;;;;;;;8.75;4.80;;;27.90;81.50;28.20;98722.00;;;;5115224;27;84065;-62
2022/07/03 10:52:49;;;;;;;9.35;4.80;;;27.90;82.10;28.30;98705.00;;;;5114396;27;81723;-63
2022/07/03 10:55:17;;;;;;;8.73;4.88;;;27.90;80.40;28.20;98699.00;;;;5111919;27;82655;-63
2022/07/03 10:58:07;;;;;;;6.70;4.30;;;28.00;80.70;28.40;98695.00;;;;5113701;27;81727;-63
2022/07/03 11:00:54;;;;;;;5.65;4.25;;;28.10;77.90;28.50;98693.00;;;;5117269;27;82353;-63
2022/07/03 11:03:59;;;;;;;6.18;3.75;;;28.10;74.40;28.40;98691.00;;;;5116040;27;82941;-63
2022/07/03 11:06:43;;;;;;;8.75;4.20;;;28.00;75.00;28.30;98700.00;;;;5113970;27;81995;-63
2022/07/03 11:09:11;;;;;;;6.45;4.75;;;27.70;73.90;28.10;98694.00;;;;5118399;27;81548;-63
2022/07/03 11:11:54;;;;;;;9.88;4.18;;;27.80;76.80;28.20;98679.00;;;;5113973;27;82626;-63
2022/07/03 11:14:27;;;;;;;9.32;4.53;;;28.10;77.30;28.50;98673.00;;;;5115384;27;82937;-63
2022/07/03 11:17:18;;;;;;;8.75;4.63;;;28.30;74.80;28.70;98689.00;;;;5099142;27;81755;-63
2022/07/03 11:23:18;;;;;;;6.30;4.40;;;28.30;75.10;28.70;98683.00;;;;5119276;27;82430;-63
2022/07/03 11:25:47;;;;;;;7.47;3.78;;;28.30;75.80;28.60;98692.00;;;;5118300;27;82791;-63
2022/07/03 11:28:31;;;;;;;5.85;3.88;;;28.20;70.60;28.60;98672.00;;;;5116372;27;81795;-63
2022/07/03 11:33:51;;;;;;;6.57;4.20;;;28.40;69.50;28.80;98689.00;;;;5094377;27;83482;-63
2022/07/03 11:36:17;;;;;;;6.82;4.20;;;;;28.80;98689.00;;;;5087294;27;82853;-62
2022/07/03 11:38:46;;;;;;;4.93;3.97;;;28.40;69.70;28.80;98664.00;;;;5099840;27;81618;-64
2022/07/03 11:41:14;;;;;;;9.40;3.88;;;28.60;73.30;28.90;98668.00;;;;5112009;27;81818;-63
2022/07/03 11:44:08;;;;;;;5.38;3.90;;;28.60;73.20;28.90;98678.00;;;;5116840;27;82410;-64
2022/07/03 11:46:39;;;;;;;7.20;3.97;;;28.50;74.10;28.90;98674.00;;;;5111504;27;82895;-63
2022/07/03 11:49:07;;;;;;;9.43;4.05;;;28.50;72.60;28.90;98670.00;;;;5092473;27;82135;-63
2022/07/03 11:51:34;;;;;;;6.50;3.90;;;28.70;73.50;29.10;98678.00;;;;5095953;27;82029;-64
2022/07/03 11:54:02;;;;;;;6.85;4.20;;;28.80;73.40;29.20;98676.00;;;;5096045;27;83751;-63
2022/07/03 11:56:28;;;;;;;7.13;4.50;;;;;28.80;98671.00;;;;5115535;27;81995;-64
2022/07/03 11:58:58;;;;;;;6.93;4.45;;;28.50;69.40;28.90;98664.00;;;;5094069;27;82355;-65
2022/07/03 12:01:30;;;;;;;5.07;3.92;;;28.40;69.20;28.80;98659.00;;;;5107872;27;81709;-64
2022/07/03 12:04:18;;;;;;;6.05;3.95;;;28.40;72.70;28.80;98662.00;;;;5115755;27;82533;-64
2022/07/03 12:07:00;;;;;;;8.98;4.10;;;28.50;72.20;28.90;98656.00;;;;5112675;27;81861;-64
2022/07/03 12:09:35;;;;;;;8.13;4.60;;;28.60;71.40;29.10;98661.00;;;;5118109;27;81613;-64
2022/07/03 12:12:03;;;;;;;7.25;4.22;;;28.80;71.40;29.30;98659.00;;;;5118054;27;81595;-64
2022/07/03 12:14:50;;;;;;;4.47;3.83;;;28.90;69.70;29.40;98662.00;;;;5112732;27;83728;-65
2022/07/03 12:17:20;;;;;;;5.97;3.50;;;;;29.30;98676.00;;;;5089699;27;82140;-60
2022/07/03 12:19:58;;;;;;;5.00;3.83;;;28.70;70.00;29.20;98661.00;;;;5092537;27;81544;-60
2022/07/03 12:22:37;;;;;;;6.03;4.32;;;28.80;67.10;29.30;98662.00;;;;5095619;27;82198;-60
2022/07/03 12:25:09;;;;;;;7.18;4.15;;;28.90;65.80;29.40;98661.00;;;;5095522;27;83419;-57